Weather History for KOLY - January, 2013

Change the Weather History Date:

Thursday, January 24, 2013

  Actual Average (KEVV) Record (KEVV)
Temperature  
Mean Temperature 22 °F 32 °F  
Max Temperature 28 °F 41 °F 76 °F (1943)
Min Temperature 15 °F 24 °F -15 °F (1963)
Degree Days  
Heating Degree Days 44 32  
Month to date heating degree days 786  
Since 1 July heating degree days 2558  
Cooling Degree Days 0 0  
Month to date cooling degree days 0  
Year to date cooling degree days 0  
Moisture  
Dew Point 9 °F    
Average Humidity 56    
Maximum Humidity 74    
Minimum Humidity 40    
Precipitation  
Precipitation 0.00 in 0.10 in 2.22 in (1929)
Month to date precipitation 2.36  
Year to date precipitation 2.36  
Snow  
Snow 0.00 in 0.10 in 2.30 in (1979)
Month to date snowfall 2.6  
Since 1 July snowfall 6.1  
Snow Depth -    
Sea Level Pressure  
Sea Level Pressure 30.46 in    
Wind  
Wind Speed 12 mph (NE)    
Max Wind Speed 20 mph    
Max Gust Speed 29 mph    
Visibility 10 miles    
Events      
T = Trace of Precipitation, MM = Missing Value Source: NWS Daily Summary

Daily Weather History Graph

Daily Weather History Graph

Search for Another Location

Airport or City:

Trip Planner

Search our weather history database for the weather conditions in past years. The results will help you decide how hot, cold, wet, or windy it might be!

Date:

Astronomy

Jan. 24, 2013 Rise Set
Actual Time 7:04 AM CST 5:05 PM CST
Civil Twilight 6:36 AM CST 5:34 PM CST
Nautical Twilight 6:03 AM CST 6:06 PM CST
Astronomical Twilight 5:32 AM CST 6:37 PM CST
Moon 3:07 PM CST (1/24) 5:01 AM CST (1/24)
Length of Visible Light 10h 58m
Length of Day
10h 01m
Waxing Gibbous, 94% of the Moon is Illuminated
Jan 24
Waxing Gibbous
Jan 26
Full
Feb 3
Last Quarter
Feb 10
New
Feb 17
First Quarter

Hourly Weather History & Observations

Time (CST) Temp. Windchill Dew Point Humidity Pressure Visibility Wind Dir Wind Speed Gust Speed Precip Events Conditions
12:15 AM 26.6 °F 13.8 °F 19.4 °F 74% 30.29 in 10.0 mi NNW 17.3 mph 23.0 mph N/A   Clear
12:35 AM 26.6 °F 13.4 °F 17.6 °F 69% 30.31 in 10.0 mi NNW 18.4 mph 24.2 mph N/A   Mostly Cloudy
12:55 AM 24.8 °F 12.9 °F 15.8 °F 69% 30.33 in 10.0 mi North 13.8 mph 28.8 mph N/A   Overcast
1:15 AM 24.8 °F 10.7 °F 14.0 °F 64% 30.35 in 10.0 mi North 19.6 mph 25.3 mph N/A   Scattered Clouds
1:35 AM 21.2 °F 6.8 °F 10.4 °F 63% 30.37 in 10.0 mi North 17.3 mph 24.2 mph N/A   Clear
1:55 AM 21.2 °F 8.3 °F 10.4 °F 63% 30.38 in 10.0 mi North 13.8 mph 23.0 mph N/A   Clear
2:15 AM 21.2 °F 6.4 °F 10.4 °F 63% 30.39 in 10.0 mi North 18.4 mph 23.0 mph N/A   Clear
2:35 AM 19.4 °F 6.6 °F 10.4 °F 68% 30.40 in 10.0 mi North 12.7 mph - N/A   Clear
2:55 AM 19.4 °F 6.0 °F 10.4 °F 68% 30.41 in 10.0 mi North 13.8 mph 23.0 mph N/A   Clear
3:15 AM 19.4 °F 5.5 °F 10.4 °F 68% 30.42 in 10.0 mi North 15.0 mph 23.0 mph N/A   Clear
3:35 AM 19.4 °F 7.2 °F 10.4 °F 68% 30.42 in 10.0 mi North 11.5 mph - N/A   Clear
3:55 AM 19.4 °F 6.0 °F 8.6 °F 63% 30.43 in 10.0 mi North 13.8 mph 21.9 mph N/A   Clear
4:15 AM 17.6 °F 5.7 °F 6.8 °F 63% 30.44 in 10.0 mi North 10.4 mph - N/A   Clear
4:35 AM 17.6 °F 5.7 °F 6.8 °F 63% 30.46 in 10.0 mi North 10.4 mph - N/A   Clear
4:55 AM 17.6 °F 7.3 °F 6.8 °F 63% 30.47 in 10.0 mi North 8.1 mph 16.1 mph N/A   Clear
5:15 AM 17.6 °F 7.3 °F 6.8 °F 63% 30.48 in 10.0 mi North 8.1 mph - N/A   Clear
5:35 AM 17.6 °F 7.3 °F 6.8 °F 63% 30.50 in 10.0 mi North 8.1 mph - N/A   Clear
5:55 AM 15.8 °F 6.1 °F 6.8 °F 68% 30.51 in 10.0 mi North 6.9 mph - N/A   Clear
6:15 AM 15.8 °F 2.7 °F 6.8 °F 68% 30.52 in 10.0 mi North 11.5 mph - N/A   Clear
6:35 AM 15.8 °F 2.7 °F 6.8 °F 68% 30.53 in 10.0 mi North 11.5 mph - N/A   Clear
6:55 AM 15.8 °F 7.2 °F 6.8 °F 68% 30.52 in 10.0 mi North 5.8 mph - N/A   Clear
7:15 AM 15.8 °F 5.1 °F 6.8 °F 68% 30.54 in 10.0 mi North 8.1 mph - N/A   Clear
7:35 AM 15.8 °F 3.4 °F 6.8 °F 68% 30.54 in 10.0 mi North 10.4 mph - N/A   Clear
7:55 AM 15.8 °F 3.4 °F 6.8 °F 68% 30.54 in 10.0 mi NNE 10.4 mph - N/A   Clear
8:15 AM 15.8 °F 2.7 °F 6.8 °F 68% 30.57 in 10.0 mi North 11.5 mph 16.1 mph N/A   Clear
8:35 AM 15.8 °F 5.1 °F 6.8 °F 68% 30.57 in 10.0 mi NNE 8.1 mph - N/A   Clear
8:55 AM 17.6 °F 8.2 °F 6.8 °F 63% 30.57 in 10.0 mi NNE 6.9 mph - N/A   Clear
9:15 AM 17.6 °F 6.4 °F 8.6 °F 68% 30.59 in 10.0 mi NNE 9.2 mph - N/A   Clear
9:35 AM 19.4 °F 8.6 °F 8.6 °F 63% 30.59 in 10.0 mi NE 9.2 mph - N/A   Clear
9:55 AM 19.4 °F 9.5 °F 8.6 °F 63% 30.60 in 10.0 mi NE 8.1 mph - N/A   Clear
10:15 AM 21.2 °F 13.6 °F 10.4 °F 63% 30.60 in 10.0 mi ENE 5.8 mph - N/A   Clear
10:35 AM 21.2 °F 10.9 °F 10.4 °F 63% 30.59 in 10.0 mi ENE 9.2 mph - N/A   Clear
10:55 AM 21.2 °F 13.6 °F 10.4 °F 63% 30.59 in 10.0 mi ENE 5.8 mph - N/A   Clear
11:15 AM 23.0 °F 13.9 °F 10.4 °F 59% 30.57 in 10.0 mi ENE 8.1 mph - N/A   Clear
11:35 AM 24.8 °F 15.3 °F 8.6 °F 50% 30.56 in 10.0 mi ENE 9.2 mph - N/A   Clear
11:55 AM 26.6 °F 19.1 °F 10.4 °F 51% 30.55 in 10.0 mi ENE 6.9 mph - N/A   Clear
12:15 PM 26.6 °F 18.2 °F 8.6 °F 47% 30.54 in 10.0 mi ESE 8.1 mph - N/A   Clear
12:35 PM 26.6 °F 18.2 °F 8.6 °F 47% 30.53 in 10.0 mi East 8.1 mph - N/A   Clear
12:55 PM 26.6 °F 16.2 °F 6.8 °F 43% 30.52 in 10.0 mi ENE 11.5 mph - N/A   Clear
1:15 PM 26.6 °F 17.5 °F 6.8 °F 43% 30.52 in 10.0 mi ENE 9.2 mph - N/A   Clear
1:35 PM 28.4 °F 19.1 °F 8.6 °F 43% 30.51 in 10.0 mi ENE 10.4 mph - N/A   Clear
1:55 PM 28.4 °F 19.1 °F 6.8 °F 40% 30.50 in 10.0 mi East 10.4 mph - N/A   Clear
2:15 PM 28.4 °F 18.5 °F 6.8 °F 40% 30.49 in 10.0 mi ENE 11.5 mph 16.1 mph N/A   Clear
2:35 PM 28.4 °F 19.7 °F 8.6 °F 43% 30.48 in 10.0 mi East 9.2 mph - N/A   Clear
2:55 PM 28.4 °F 18.0 °F 8.6 °F 43% 30.48 in 10.0 mi East 12.7 mph - N/A   Clear
3:15 PM 28.4 °F 17.5 °F 8.6 °F 43% 30.47 in 10.0 mi East 13.8 mph - N/A   Clear
3:35 PM 28.4 °F 18.0 °F 8.6 °F 43% 30.45 in 10.0 mi East 12.7 mph 18.4 mph N/A   Clear
3:55 PM 28.4 °F 18.5 °F 8.6 °F 43% 30.45 in 10.0 mi East 11.5 mph - N/A   Clear
4:15 PM 26.6 °F 17.5 °F 8.6 °F 47% 30.44 in 10.0 mi East 9.2 mph - N/A   Clear
4:35 PM 26.6 °F 19.1 °F 8.6 °F 47% 30.44 in 10.0 mi East 6.9 mph - N/A   Clear
5:15 PM 26.6 °F 21.2 °F 10.4 °F 51% 30.46 in 10.0 mi ENE 4.6 mph - N/A   Clear
5:35 PM 24.8 °F 17.9 °F 10.4 °F 54% 30.45 in 10.0 mi East 5.8 mph - N/A   Clear
6:35 PM 24.8 °F 16.9 °F 10.4 °F 54% 30.43 in 10.0 mi East 6.9 mph - N/A   Clear
6:55 PM 24.8 °F 16.1 °F 10.4 °F 54% 30.42 in 10.0 mi East 8.1 mph - N/A   Clear
7:15 PM 24.8 °F 15.3 °F 8.6 °F 50% 30.41 in 10.0 mi East 9.2 mph - N/A   Clear
7:35 PM 26.6 °F 16.8 °F 8.6 °F 47% 30.39 in 10.0 mi East 10.4 mph - N/A   Clear
7:55 PM 24.8 °F 15.3 °F 8.6 °F 50% 30.40 in 10.0 mi East 9.2 mph - N/A   Clear
8:15 PM 24.8 °F 14.6 °F 6.8 °F 46% 30.39 in 10.0 mi East 10.4 mph - N/A   Clear
8:35 PM 24.8 °F 14.6 °F 6.8 °F 46% 30.38 in 10.0 mi East 10.4 mph - N/A   Clear
8:55 PM 24.8 °F 16.1 °F 6.8 °F 46% 30.38 in 10.0 mi ESE 8.1 mph - N/A   Clear
9:15 PM 24.8 °F 16.1 °F 6.8 °F 46% 30.37 in 10.0 mi East 8.1 mph - N/A   Clear
9:35 PM 24.8 °F 15.3 °F 6.8 °F 46% 30.37 in 10.0 mi ESE 9.2 mph - N/A   Clear
9:55 PM 24.8 °F 16.1 °F 6.8 °F 46% 30.35 in 10.0 mi ESE 8.1 mph - N/A   Clear
10:15 PM 24.8 °F 14.0 °F 6.8 °F 46% 30.33 in 10.0 mi ESE 11.5 mph - N/A   Clear
10:35 PM 24.8 °F 15.3 °F 6.8 °F 46% 30.31 in 10.0 mi ESE 9.2 mph - N/A   Scattered Clouds
10:55 PM 24.8 °F 15.3 °F 6.8 °F 46% 30.32 in 10.0 mi SE 9.2 mph - N/A   Mostly Cloudy
11:15 PM 26.6 °F 17.5 °F 6.8 °F 43% 30.33 in 10.0 mi ESE 9.2 mph - N/A   Overcast
11:35 PM 26.6 °F 16.8 °F 5.0 °F 40% 30.31 in 10.0 mi ESE 10.4 mph - N/A   Overcast
11:55 PM 26.6 °F 19.1 °F 5.0 °F 40% 30.32 in 10.0 mi ESE 6.9 mph - N/A   Overcast